sensor_id;sensor_type;location;lat;lon;timestamp;temperature;humidity
54192;DHT22;40101;53.002;6.488;2024-01-30T00:01:54;6.10;99.90
54192;DHT22;40101;53.002;6.488;2024-01-30T00:04:20;6.60;99.90
54192;DHT22;40101;53.002;6.488;2024-01-30T00:06:45;6.00;99.90
54192;DHT22;40101;53.002;6.488;2024-01-30T00:09:11;6.00;99.90
54192;DHT22;40101;53.002;6.488;2024-01-30T00:11:37;6.00;99.90
54192;DHT22;40101;53.002;6.488;2024-01-30T00:14:04;6.00;99.90
54192;DHT22;40101;53.002;6.488;2024-01-30T00:16:29;6.30;99.90
54192;DHT22;40101;53.002;6.488;2024-01-30T00:18:55;6.00;99.90
54192;DHT22;40101;53.002;6.488;2024-01-30T00:21:21;6.00;99.90
54192;DHT22;40101;53.002;6.488;2024-01-30T00:23:47;6.10;99.90
54192;DHT22;40101;53.002;6.488;2024-01-30T00:26:13;6.10;99.90
54192;DHT22;40101;53.002;6.488;2024-01-30T00:28:40;6.10;99.90
54192;DHT22;40101;53.002;6.488;2024-01-30T00:31:06;6.10;99.90
54192;DHT22;40101;53.002;6.488;2024-01-30T00:33:32;6.20;99.90
54192;DHT22;40101;53.002;6.488;2024-01-30T00:35:57;6.20;99.90
54192;DHT22;40101;53.002;6.488;2024-01-30T00:38:23;6.30;99.90
54192;DHT22;40101;53.002;6.488;2024-01-30T00:40:49;6.70;99.90
54192;DHT22;40101;53.002;6.488;2024-01-30T00:43:15;6.40;99.90
54192;DHT22;40101;53.002;6.488;2024-01-30T00:45:47;6.40;99.90
54192;DHT22;40101;53.002;6.488;2024-01-30T00:48:13;6.50;99.90
54192;DHT22;40101;53.002;6.488;2024-01-30T00:50:39;6.50;99.90
54192;DHT22;40101;53.002;6.488;2024-01-30T00:53:05;6.40;99.90
54192;DHT22;40101;53.002;6.488;2024-01-30T00:55:30;6.50;99.90
54192;DHT22;40101;53.002;6.488;2024-01-30T00:57:56;6.40;99.90
54192;DHT22;40101;53.002;6.488;2024-01-30T01:00:22;6.60;99.90
54192;DHT22;40101;53.002;6.488;2024-01-30T01:02:48;6.40;99.90
54192;DHT22;40101;53.002;6.488;2024-01-30T01:05:14;6.40;99.90
54192;DHT22;40101;53.002;6.488;2024-01-30T01:07:40;6.40;99.90
54192;DHT22;40101;53.002;6.488;2024-01-30T01:10:08;6.40;99.90
54192;DHT22;40101;53.002;6.488;2024-01-30T01:12:34;6.30;99.90
54192;DHT22;40101;53.002;6.488;2024-01-30T01:15:00;6.40;99.90
54192;DHT22;40101;53.002;6.488;2024-01-30T01:17:25;6.70;99.90
54192;DHT22;40101;53.002;6.488;2024-01-30T01:19:51;6.60;99.90
54192;DHT22;40101;53.002;6.488;2024-01-30T01:22:17;6.50;99.90
54192;DHT22;40101;53.002;6.488;2024-01-30T01:24:43;6.70;99.90
54192;DHT22;40101;53.002;6.488;2024-01-30T01:27:09;6.50;99.90
54192;DHT22;40101;53.002;6.488;2024-01-30T01:29:35;6.50;99.90
54192;DHT22;40101;53.002;6.488;2024-01-30T01:32:00;6.10;99.90
54192;DHT22;40101;53.002;6.488;2024-01-30T01:34:26;6.10;99.90
54192;DHT22;40101;53.002;6.488;2024-01-30T01:36:52;6.10;99.90
54192;DHT22;40101;53.002;6.488;2024-01-30T01:39:20;6.10;99.90
54192;DHT22;40101;53.002;6.488;2024-01-30T01:41:49;6.10;99.90
54192;DHT22;40101;53.002;6.488;2024-01-30T01:44:14;6.10;99.90
54192;DHT22;40101;53.002;6.488;2024-01-30T01:46:40;6.10;99.90
54192;DHT22;40101;53.002;6.488;2024-01-30T01:49:06;6.10;99.90
54192;DHT22;40101;53.002;6.488;2024-01-30T01:51:35;6.30;99.90
54192;DHT22;40101;53.002;6.488;2024-01-30T01:54:03;6.10;99.90
54192;DHT22;40101;53.002;6.488;2024-01-30T01:56:33;6.20;99.90
54192;DHT22;40101;53.002;6.488;2024-01-30T01:59:00;6.20;99.90
54192;DHT22;40101;53.002;6.488;2024-01-30T02:01:31;6.10;99.90
54192;DHT22;40101;53.002;6.488;2024-01-30T02:03:58;6.40;99.90
54192;DHT22;40101;53.002;6.488;2024-01-30T02:06:24;6.10;99.90
54192;DHT22;40101;53.002;6.488;2024-01-30T02:08:50;6.10;99.90
54192;DHT22;40101;53.002;6.488;2024-01-30T02:11:16;6.10;99.90
54192;DHT22;40101;53.002;6.488;2024-01-30T02:13:42;6.10;99.90
54192;DHT22;40101;53.002;6.488;2024-01-30T02:16:08;6.50;99.90
54192;DHT22;40101;53.002;6.488;2024-01-30T02:18:34;6.20;99.90
54192;DHT22;40101;53.002;6.488;2024-01-30T02:21:04;6.10;99.90
54192;DHT22;40101;53.002;6.488;2024-01-30T02:23:30;5.80;99.90
54192;DHT22;40101;53.002;6.488;2024-01-30T02:25:57;6.60;99.90
54192;DHT22;40101;53.002;6.488;2024-01-30T02:28:23;6.20;99.90
54192;DHT22;40101;53.002;6.488;2024-01-30T02:30:49;6.20;99.90
54192;DHT22;40101;53.002;6.488;2024-01-30T02:33:14;6.20;99.90
54192;DHT22;40101;53.002;6.488;2024-01-30T02:35:40;6.20;99.90
54192;DHT22;40101;53.002;6.488;2024-01-30T02:38:06;6.20;99.90
54192;DHT22;40101;53.002;6.488;2024-01-30T02:40:31;6.10;99.90
54192;DHT22;40101;53.002;6.488;2024-01-30T02:43:02;6.00;99.90
54192;DHT22;40101;53.002;6.488;2024-01-30T02:45:27;6.10;99.90
54192;DHT22;40101;53.002;6.488;2024-01-30T02:47:53;6.10;99.90
54192;DHT22;40101;53.002;6.488;2024-01-30T02:50:19;5.80;99.90
54192;DHT22;40101;53.002;6.488;2024-01-30T02:52:44;5.80;99.90
54192;DHT22;40101;53.002;6.488;2024-01-30T02:55:10;6.10;99.90
54192;DHT22;40101;53.002;6.488;2024-01-30T02:57:37;5.80;99.90
54192;DHT22;40101;53.002;6.488;2024-01-30T03:00:04;5.80;99.90
54192;DHT22;40101;53.002;6.488;2024-01-30T03:02:34;5.80;99.90
54192;DHT22;40101;53.002;6.488;2024-01-30T03:05:00;5.80;99.90
54192;DHT22;40101;53.002;6.488;2024-01-30T03:07:25;5.90;99.90
54192;DHT22;40101;53.002;6.488;2024-01-30T03:09:51;5.90;99.90
54192;DHT22;40101;53.002;6.488;2024-01-30T03:12:17;6.10;99.90
54192;DHT22;40101;53.002;6.488;2024-01-30T03:14:42;5.90;99.90
54192;DHT22;40101;53.002;6.488;2024-01-30T03:17:08;5.90;99.90
54192;DHT22;40101;53.002;6.488;2024-01-30T03:19:34;5.90;99.90
54192;DHT22;40101;53.002;6.488;2024-01-30T03:21:59;5.90;99.90
54192;DHT22;40101;53.002;6.488;2024-01-30T03:24:28;6.10;99.90
54192;DHT22;40101;53.002;6.488;2024-01-30T03:26:53;6.10;99.90
54192;DHT22;40101;53.002;6.488;2024-01-30T03:29:19;6.20;99.90
54192;DHT22;40101;53.002;6.488;2024-01-30T03:31:45;6.20;99.90
54192;DHT22;40101;53.002;6.488;2024-01-30T03:34:10;6.60;99.90
54192;DHT22;40101;53.002;6.488;2024-01-30T03:36:36;6.30;99.90
54192;DHT22;40101;53.002;6.488;2024-01-30T03:39:02;6.20;99.90
54192;DHT22;40101;53.002;6.488;2024-01-30T03:41:28;6.20;99.90
54192;DHT22;40101;53.002;6.488;2024-01-30T03:43:53;6.20;99.90
54192;DHT22;40101;53.002;6.488;2024-01-30T03:46:19;6.30;99.90
54192;DHT22;40101;53.002;6.488;2024-01-30T03:48:47;6.30;99.90
54192;DHT22;40101;53.002;6.488;2024-01-30T03:51:13;6.60;99.90
54192;DHT22;40101;53.002;6.488;2024-01-30T03:53:43;6.40;99.90
54192;DHT22;40101;53.002;6.488;2024-01-30T03:56:09;6.40;99.90
54192;DHT22;40101;53.002;6.488;2024-01-30T03:58:35;6.40;99.90
54192;DHT22;40101;53.002;6.488;2024-01-30T04:01:01;6.40;99.90
54192;DHT22;40101;53.002;6.488;2024-01-30T04:03:27;6.60;99.90
54192;DHT22;40101;53.002;6.488;2024-01-30T04:05:53;6.40;99.90
54192;DHT22;40101;53.002;6.488;2024-01-30T04:08:19;6.50;99.90
54192;DHT22;40101;53.002;6.488;2024-01-30T04:10:45;6.60;99.90
54192;DHT22;40101;53.002;6.488;2024-01-30T04:13:10;6.70;99.90
54192;DHT22;40101;53.002;6.488;2024-01-30T04:15:36;6.60;99.90
54192;DHT22;40101;53.002;6.488;2024-01-30T04:18:02;7.00;99.90
54192;DHT22;40101;53.002;6.488;2024-01-30T04:20:28;6.70;99.90
54192;DHT22;40101;53.002;6.488;2024-01-30T04:22:54;7.10;99.90
54192;DHT22;40101;53.002;6.488;2024-01-30T04:25:22;6.80;99.90
54192;DHT22;40101;53.002;6.488;2024-01-30T04:27:48;6.80;99.90
54192;DHT22;40101;53.002;6.488;2024-01-30T04:30:14;6.80;99.90
54192;DHT22;40101;53.002;6.488;2024-01-30T04:32:40;6.60;99.90
54192;DHT22;40101;53.002;6.488;2024-01-30T04:35:06;6.80;99.90
54192;DHT22;40101;53.002;6.488;2024-01-30T04:37:32;6.80;99.90
54192;DHT22;40101;53.002;6.488;2024-01-30T04:40:00;6.80;99.90
54192;DHT22;40101;53.002;6.488;2024-01-30T04:42:28;6.80;99.90
54192;DHT22;40101;53.002;6.488;2024-01-30T04:44:54;6.70;99.90
54192;DHT22;40101;53.002;6.488;2024-01-30T04:47:19;6.70;99.90
54192;DHT22;40101;53.002;6.488;2024-01-30T04:49:45;6.70;99.90
54192;DHT22;40101;53.002;6.488;2024-01-30T04:52:17;7.00;99.90
54192;DHT22;40101;53.002;6.488;2024-01-30T04:54:43;6.70;99.90
54192;DHT22;40101;53.002;6.488;2024-01-30T04:57:09;6.80;99.90
54192;DHT22;40101;53.002;6.488;2024-01-30T04:59:37;6.80;99.90
54192;DHT22;40101;53.002;6.488;2024-01-30T05:02:03;7.10;99.90
54192;DHT22;40101;53.002;6.488;2024-01-30T05:04:29;6.80;99.90
54192;DHT22;40101;53.002;6.488;2024-01-30T05:06:54;7.20;99.90
54192;DHT22;40101;53.002;6.488;2024-01-30T05:09:20;7.00;99.90
54192;DHT22;40101;53.002;6.488;2024-01-30T05:11:46;6.90;99.90
54192;DHT22;40101;53.002;6.488;2024-01-30T05:14:15;6.90;99.90
54192;DHT22;40101;53.002;6.488;2024-01-30T05:16:41;7.00;99.90
54192;DHT22;40101;53.002;6.488;2024-01-30T05:19:13;7.30;99.90
54192;DHT22;40101;53.002;6.488;2024-01-30T05:21:39;7.00;99.90
54192;DHT22;40101;53.002;6.488;2024-01-30T05:24:05;7.20;99.90
54192;DHT22;40101;53.002;6.488;2024-01-30T05:26:30;7.00;99.90
54192;DHT22;40101;53.002;6.488;2024-01-30T05:28:57;7.00;99.90
54192;DHT22;40101;53.002;6.488;2024-01-30T05:31:22;7.10;99.90
54192;DHT22;40101;53.002;6.488;2024-01-30T05:33:48;7.20;99.90
54192;DHT22;40101;53.002;6.488;2024-01-30T05:36:14;7.40;99.90
54192;DHT22;40101;53.002;6.488;2024-01-30T05:38:40;7.40;99.90
54192;DHT22;40101;53.002;6.488;2024-01-30T05:41:05;7.00;99.90
54192;DHT22;40101;53.002;6.488;2024-01-30T05:43:31;7.20;99.90
54192;DHT22;40101;53.002;6.488;2024-01-30T05:45:57;7.30;99.90
54192;DHT22;40101;53.002;6.488;2024-01-30T05:48:22;7.00;99.90
54192;DHT22;40101;53.002;6.488;2024-01-30T05:50:48;7.00;99.90
54192;DHT22;40101;53.002;6.488;2024-01-30T05:53:14;7.00;99.90
54192;DHT22;40101;53.002;6.488;2024-01-30T05:55:39;7.00;99.90
54192;DHT22;40101;53.002;6.488;2024-01-30T05:58:08;7.00;99.90
54192;DHT22;40101;53.002;6.488;2024-01-30T06:00:33;7.00;99.90
54192;DHT22;40101;53.002;6.488;2024-01-30T06:02:59;7.60;99.90
54192;DHT22;40101;53.002;6.488;2024-01-30T06:05:25;7.00;99.90
54192;DHT22;40101;53.002;6.488;2024-01-30T06:07:50;7.10;99.90
54192;DHT22;40101;53.002;6.488;2024-01-30T06:10:16;7.00;99.90
54192;DHT22;40101;53.002;6.488;2024-01-30T06:12:42;7.00;99.90
54192;DHT22;40101;53.002;6.488;2024-01-30T06:15:08;7.00;99.90
54192;DHT22;40101;53.002;6.488;2024-01-30T06:17:37;7.00;99.90
54192;DHT22;40101;53.002;6.488;2024-01-30T06:20:03;7.00;99.90
54192;DHT22;40101;53.002;6.488;2024-01-30T06:22:29;7.00;99.90
54192;DHT22;40101;53.002;6.488;2024-01-30T06:24:54;7.10;99.90
54192;DHT22;40101;53.002;6.488;2024-01-30T06:27:20;7.10;99.90
54192;DHT22;40101;53.002;6.488;2024-01-30T06:29:46;7.10;99.90
54192;DHT22;40101;53.002;6.488;2024-01-30T06:32:11;7.10;99.90
54192;DHT22;40101;53.002;6.488;2024-01-30T06:34:37;7.10;99.90
54192;DHT22;40101;53.002;6.488;2024-01-30T06:37:05;7.70;99.90
54192;DHT22;40101;53.002;6.488;2024-01-30T06:39:31;7.20;99.90
54192;DHT22;40101;53.002;6.488;2024-01-30T06:41:56;7.30;99.90
54192;DHT22;40101;53.002;6.488;2024-01-30T06:44:22;7.30;99.90
54192;DHT22;40101;53.002;6.488;2024-01-30T06:46:48;7.80;99.90
54192;DHT22;40101;53.002;6.488;2024-01-30T06:49:13;7.30;99.90
54192;DHT22;40101;53.002;6.488;2024-01-30T06:51:39;7.50;99.90
54192;DHT22;40101;53.002;6.488;2024-01-30T06:54:05;7.30;99.90
54192;DHT22;40101;53.002;6.488;2024-01-30T06:56:31;7.60;99.90
54192;DHT22;40101;53.002;6.488;2024-01-30T06:58:56;7.70;99.90
54192;DHT22;40101;53.002;6.488;2024-01-30T07:01:28;7.60;99.90
54192;DHT22;40101;53.002;6.488;2024-01-30T07:03:54;7.60;99.90
54192;DHT22;40101;53.002;6.488;2024-01-30T07:06:20;7.40;99.90
54192;DHT22;40101;53.002;6.488;2024-01-30T07:08:46;7.40;99.90
54192;DHT22;40101;53.002;6.488;2024-01-30T07:11:18;7.80;99.90
54192;DHT22;40101;53.002;6.488;2024-01-30T07:13:44;7.40;99.90
54192;DHT22;40101;53.002;6.488;2024-01-30T07:16:12;7.40;99.90
54192;DHT22;40101;53.002;6.488;2024-01-30T07:18:38;7.40;99.90
54192;DHT22;40101;53.002;6.488;2024-01-30T07:21:04;7.40;99.90
54192;DHT22;40101;53.002;6.488;2024-01-30T07:23:29;7.50;99.90
54192;DHT22;40101;53.002;6.488;2024-01-30T07:25:55;7.50;99.90
54192;DHT22;40101;53.002;6.488;2024-01-30T07:28:21;7.50;99.90
54192;DHT22;40101;53.002;6.488;2024-01-30T07:30:46;7.50;99.90
54192;DHT22;40101;53.002;6.488;2024-01-30T07:33:13;7.60;99.90
54192;DHT22;40101;53.002;6.488;2024-01-30T07:35:39;7.60;99.90
54192;DHT22;40101;53.002;6.488;2024-01-30T07:38:05;7.80;99.90
54192;DHT22;40101;53.002;6.488;2024-01-30T07:40:31;7.90;99.90
54192;DHT22;40101;53.002;6.488;2024-01-30T07:42:58;7.60;99.90
54192;DHT22;40101;53.002;6.488;2024-01-30T07:45:24;8.00;99.90
54192;DHT22;40101;53.002;6.488;2024-01-30T07:47:51;7.80;99.90
54192;DHT22;40101;53.002;6.488;2024-01-30T07:50:17;7.70;99.90
54192;DHT22;40101;53.002;6.488;2024-01-30T07:52:43;7.80;99.90
54192;DHT22;40101;53.002;6.488;2024-01-30T07:55:09;7.70;99.90
54192;DHT22;40101;53.002;6.488;2024-01-30T07:57:34;7.80;99.90
54192;DHT22;40101;53.002;6.488;2024-01-30T08:00:01;7.80;99.90
54192;DHT22;40101;53.002;6.488;2024-01-30T08:02:27;7.80;99.90
54192;DHT22;40101;53.002;6.488;2024-01-30T08:04:52;8.00;99.90
54192;DHT22;40101;53.002;6.488;2024-01-30T08:07:18;7.80;99.90
54192;DHT22;40101;53.002;6.488;2024-01-30T08:09:44;8.20;99.90
54192;DHT22;40101;53.002;6.488;2024-01-30T08:12:09;8.20;99.90
54192;DHT22;40101;53.002;6.488;2024-01-30T08:14:35;7.90;99.90
54192;DHT22;40101;53.002;6.488;2024-01-30T08:17:01;7.90;99.90
54192;DHT22;40101;53.002;6.488;2024-01-30T08:19:26;8.00;99.90
54192;DHT22;40101;53.002;6.488;2024-01-30T08:21:52;8.00;99.90
54192;DHT22;40101;53.002;6.488;2024-01-30T08:24:17;8.00;99.90
54192;DHT22;40101;53.002;6.488;2024-01-30T08:26:43;8.00;99.90
54192;DHT22;40101;53.002;6.488;2024-01-30T08:29:09;8.10;99.90
54192;DHT22;40101;53.002;6.488;2024-01-30T08:31:34;8.10;99.90
54192;DHT22;40101;53.002;6.488;2024-01-30T08:34:00;8.50;99.90
54192;DHT22;40101;53.002;6.488;2024-01-30T08:36:25;8.40;99.90
54192;DHT22;40101;53.002;6.488;2024-01-30T08:38:51;8.20;99.90
54192;DHT22;40101;53.002;6.488;2024-01-30T08:41:17;8.30;99.90
54192;DHT22;40101;53.002;6.488;2024-01-30T08:43:43;8.20;99.90
54192;DHT22;40101;53.002;6.488;2024-01-30T08:46:10;8.60;99.90
54192;DHT22;40101;53.002;6.488;2024-01-30T08:48:36;8.70;99.90
54192;DHT22;40101;53.002;6.488;2024-01-30T08:51:01;8.70;99.90
54192;DHT22;40101;53.002;6.488;2024-01-30T08:53:27;8.60;99.90
54192;DHT22;40101;53.002;6.488;2024-01-30T08:55:53;8.10;99.90
54192;DHT22;40101;53.002;6.488;2024-01-30T08:58:19;8.40;99.90
54192;DHT22;40101;53.002;6.488;2024-01-30T09:00:45;8.50;99.90
54192;DHT22;40101;53.002;6.488;2024-01-30T09:03:11;8.80;99.90
54192;DHT22;40101;53.002;6.488;2024-01-30T09:05:36;8.50;99.90
54192;DHT22;40101;53.002;6.488;2024-01-30T09:08:02;8.50;99.90
54192;DHT22;40101;53.002;6.488;2024-01-30T09:10:28;8.50;99.90
54192;DHT22;40101;53.002;6.488;2024-01-30T09:12:53;9.00;99.90
54192;DHT22;40101;53.002;6.488;2024-01-30T09:15:19;8.90;99.90
54192;DHT22;40101;53.002;6.488;2024-01-30T09:17:45;8.50;99.90
54192;DHT22;40101;53.002;6.488;2024-01-30T09:20:11;8.60;99.90
54192;DHT22;40101;53.002;6.488;2024-01-30T09:22:37;8.60;99.90
54192;DHT22;40101;53.002;6.488;2024-01-30T09:25:02;8.60;99.90
54192;DHT22;40101;53.002;6.488;2024-01-30T09:27:28;8.60;99.90
54192;DHT22;40101;53.002;6.488;2024-01-30T09:29:54;8.50;99.90
54192;DHT22;40101;53.002;6.488;2024-01-30T09:32:19;8.80;99.90
54192;DHT22;40101;53.002;6.488;2024-01-30T09:34:45;8.80;99.90
54192;DHT22;40101;53.002;6.488;2024-01-30T09:37:11;8.80;99.90
54192;DHT22;40101;53.002;6.488;2024-01-30T09:39:36;8.80;99.90
54192;DHT22;40101;53.002;6.488;2024-01-30T09:42:21;9.00;99.90
54192;DHT22;40101;53.002;6.488;2024-01-30T09:44:50;9.00;99.90
54192;DHT22;40101;53.002;6.488;2024-01-30T09:47:16;9.00;99.90
54192;DHT22;40101;53.002;6.488;2024-01-30T09:49:43;9.10;99.90
54192;DHT22;40101;53.002;6.488;2024-01-30T09:52:09;9.50;99.90
54192;DHT22;40101;53.002;6.488;2024-01-30T09:54:36;9.30;99.90
54192;DHT22;40101;53.002;6.488;2024-01-30T09:57:04;9.60;99.90
54192;DHT22;40101;53.002;6.488;2024-01-30T09:59:30;9.40;99.90
54192;DHT22;40101;53.002;6.488;2024-01-30T10:01:56;9.40;99.90
54192;DHT22;40101;53.002;6.488;2024-01-30T10:04:22;9.60;99.90
54192;DHT22;40101;53.002;6.488;2024-01-30T10:06:48;9.50;99.90
54192;DHT22;40101;53.002;6.488;2024-01-30T10:09:13;9.50;99.90
54192;DHT22;40101;53.002;6.488;2024-01-30T10:11:39;9.50;99.90
54192;DHT22;40101;53.002;6.488;2024-01-30T10:14:05;9.50;99.90
54192;DHT22;40101;53.002;6.488;2024-01-30T10:16:30;9.60;99.90
54192;DHT22;40101;53.002;6.488;2024-01-30T10:18:56;9.90;99.90
54192;DHT22;40101;53.002;6.488;2024-01-30T10:21:24;9.70;99.90
54192;DHT22;40101;53.002;6.488;2024-01-30T10:23:50;10.00;99.90
54192;DHT22;40101;53.002;6.488;2024-01-30T10:26:19;9.60;99.90
54192;DHT22;40101;53.002;6.488;2024-01-30T10:28:45;10.10;99.90
54192;DHT22;40101;53.002;6.488;2024-01-30T10:31:10;9.90;99.90
54192;DHT22;40101;53.002;6.488;2024-01-30T10:33:36;9.90;99.90
54192;DHT22;40101;53.002;6.488;2024-01-30T10:36:03;10.00;99.90
54192;DHT22;40101;53.002;6.488;2024-01-30T10:38:30;10.00;99.90
54192;DHT22;40101;53.002;6.488;2024-01-30T10:41:05;10.20;99.90
54192;DHT22;40101;53.002;6.488;2024-01-30T10:43:35;10.10;99.90
54192;DHT22;40101;53.002;6.488;2024-01-30T10:46:21;10.10;99.90
54192;DHT22;40101;53.002;6.488;2024-01-30T10:48:55;10.00;99.90
54192;DHT22;40101;53.002;6.488;2024-01-30T10:51:22;10.10;99.90
54192;DHT22;40101;53.002;6.488;2024-01-30T10:53:49;9.90;99.90
54192;DHT22;40101;53.002;6.488;2024-01-30T10:56:16;9.90;99.90
54192;DHT22;40101;53.002;6.488;2024-01-30T10:58:42;10.00;99.90
54192;DHT22;40101;53.002;6.488;2024-01-30T11:01:08;9.90;99.90
54192;DHT22;40101;53.002;6.488;2024-01-30T11:03:35;9.90;99.90
54192;DHT22;40101;53.002;6.488;2024-01-30T11:06:02;10.10;99.90
54192;DHT22;40101;53.002;6.488;2024-01-30T11:08:31;10.10;99.90
54192;DHT22;40101;53.002;6.488;2024-01-30T11:10:58;10.50;99.90
54192;DHT22;40101;53.002;6.488;2024-01-30T11:13:30;10.10;99.90
54192;DHT22;40101;53.002;6.488;2024-01-30T11:16:06;10.50;99.90
54192;DHT22;40101;53.002;6.488;2024-01-30T11:18:35;10.20;99.90
54192;DHT22;40101;53.002;6.488;2024-01-30T11:21:01;10.50;99.90
54192;DHT22;40101;53.002;6.488;2024-01-30T11:23:32;10.00;99.90
54192;DHT22;40101;53.002;6.488;2024-01-30T11:25:58;10.40;99.90
54192;DHT22;40101;53.002;6.488;2024-01-30T11:28:24;10.50;99.90
54192;DHT22;40101;53.002;6.488;2024-01-30T11:30:50;10.20;99.90
54192;DHT22;40101;53.002;6.488;2024-01-30T11:33:29;10.20;99.90
54192;DHT22;40101;53.002;6.488;2024-01-30T11:35:58;10.20;99.90
54192;DHT22;40101;53.002;6.488;2024-01-30T11:38:28;10.30;99.90
54192;DHT22;40101;53.002;6.488;2024-01-30T11:40:57;10.30;99.90
54192;DHT22;40101;53.002;6.488;2024-01-30T11:43:23;10.40;99.90
54192;DHT22;40101;53.002;6.488;2024-01-30T11:45:49;10.20;99.90
54192;DHT22;40101;53.002;6.488;2024-01-30T11:48:15;10.20;99.90
54192;DHT22;40101;53.002;6.488;2024-01-30T11:50:40;10.30;99.90
54192;DHT22;40101;53.002;6.488;2024-01-30T11:53:06;10.10;99.90
54192;DHT22;40101;53.002;6.488;2024-01-30T11:55:33;10.10;99.90
54192;DHT22;40101;53.002;6.488;2024-01-30T11:57:58;10.10;99.90
54192;DHT22;40101;53.002;6.488;2024-01-30T12:00:25;10.20;99.90
54192;DHT22;40101;53.002;6.488;2024-01-30T12:02:52;10.40;99.90
54192;DHT22;40101;53.002;6.488;2024-01-30T12:05:21;10.20;99.90
54192;DHT22;40101;53.002;6.488;2024-01-30T12:07:47;10.00;99.90
54192;DHT22;40101;53.002;6.488;2024-01-30T12:10:13;10.20;99.90
54192;DHT22;40101;53.002;6.488;2024-01-30T12:12:41;9.90;99.90
54192;DHT22;40101;53.002;6.488;2024-01-30T12:15:08;9.90;99.90
54192;DHT22;40101;53.002;6.488;2024-01-30T12:17:34;9.80;99.90
54192;DHT22;40101;53.002;6.488;2024-01-30T12:20:10;10.10;99.90
54192;DHT22;40101;53.002;6.488;2024-01-30T12:22:41;9.90;99.90
54192;DHT22;40101;53.002;6.488;2024-01-30T12:25:11;9.90;99.90
54192;DHT22;40101;53.002;6.488;2024-01-30T12:27:38;10.10;99.90
54192;DHT22;40101;53.002;6.488;2024-01-30T12:30:08;10.20;99.90
54192;DHT22;40101;53.002;6.488;2024-01-30T12:32:38;10.20;99.90
54192;DHT22;40101;53.002;6.488;2024-01-30T12:35:07;10.50;99.90
54192;DHT22;40101;53.002;6.488;2024-01-30T12:37:34;10.20;99.90
54192;DHT22;40101;53.002;6.488;2024-01-30T12:40:00;10.20;99.90
54192;DHT22;40101;53.002;6.488;2024-01-30T12:42:27;10.50;99.90
54192;DHT22;40101;53.002;6.488;2024-01-30T12:44:53;10.20;99.90
54192;DHT22;40101;53.002;6.488;2024-01-30T12:47:21;10.20;99.90
54192;DHT22;40101;53.002;6.488;2024-01-30T12:49:47;10.30;99.90
54192;DHT22;40101;53.002;6.488;2024-01-30T12:52:16;10.00;99.90
54192;DHT22;40101;53.002;6.488;2024-01-30T12:54:41;10.00;99.90
54192;DHT22;40101;53.002;6.488;2024-01-30T12:57:07;10.10;99.90
54192;DHT22;40101;53.002;6.488;2024-01-30T12:59:33;9.90;99.90
54192;DHT22;40101;53.002;6.488;2024-01-30T13:02:00;9.90;99.90
54192;DHT22;40101;53.002;6.488;2024-01-30T13:04:28;9.90;99.90
54192;DHT22;40101;53.002;6.488;2024-01-30T13:06:54;9.90;99.90
54192;DHT22;40101;53.002;6.488;2024-01-30T13:09:19;10.20;99.90
54192;DHT22;40101;53.002;6.488;2024-01-30T13:11:45;10.00;99.90
54192;DHT22;40101;53.002;6.488;2024-01-30T13:14:11;9.80;99.90
54192;DHT22;40101;53.002;6.488;2024-01-30T13:16:37;9.80;99.90
54192;DHT22;40101;53.002;6.488;2024-01-30T13:19:03;9.80;99.90
54192;DHT22;40101;53.002;6.488;2024-01-30T13:21:29;9.80;99.90
54192;DHT22;40101;53.002;6.488;2024-01-30T13:23:55;10.20;99.90
54192;DHT22;40101;53.002;6.488;2024-01-30T13:26:21;9.80;99.90
54192;DHT22;40101;53.002;6.488;2024-01-30T13:28:47;10.00;99.90
54192;DHT22;40101;53.002;6.488;2024-01-30T13:31:16;9.90;99.90
54192;DHT22;40101;53.002;6.488;2024-01-30T13:33:42;9.90;99.90
54192;DHT22;40101;53.002;6.488;2024-01-30T13:36:09;9.80;99.90
54192;DHT22;40101;53.002;6.488;2024-01-30T13:38:35;9.90;99.90
54192;DHT22;40101;53.002;6.488;2024-01-30T13:41:01;9.90;99.90
54192;DHT22;40101;53.002;6.488;2024-01-30T13:43:26;10.30;99.90
54192;DHT22;40101;53.002;6.488;2024-01-30T13:45:52;9.80;99.90
54192;DHT22;40101;53.002;6.488;2024-01-30T13:48:18;9.90;99.90
54192;DHT22;40101;53.002;6.488;2024-01-30T13:50:44;10.00;99.90
54192;DHT22;40101;53.002;6.488;2024-01-30T13:53:10;9.70;99.90
54192;DHT22;40101;53.002;6.488;2024-01-30T13:56:01;10.00;99.90
54192;DHT22;40101;53.002;6.488;2024-01-30T13:59:22;9.90;99.90
54192;DHT22;40101;53.002;6.488;2024-01-30T14:09:05;9.60;99.90
54192;DHT22;40101;53.002;6.488;2024-01-30T14:11:52;9.50;99.90
54192;DHT22;40101;53.002;6.488;2024-01-30T14:18:08;9.50;99.90
54192;DHT22;40101;53.002;6.488;2024-01-30T14:20:47;9.60;99.90
54192;DHT22;40101;53.002;6.488;2024-01-30T14:23:24;8.90;99.90
54192;DHT22;40101;53.002;6.488;2024-01-30T14:25:56;9.30;99.90
54192;DHT22;40101;53.002;6.488;2024-01-30T14:29:00;9.30;99.90
54192;DHT22;40101;53.002;6.488;2024-01-30T14:31:40;9.10;99.90
54192;DHT22;40101;53.002;6.488;2024-01-30T14:34:58;9.20;99.90
54192;DHT22;40101;53.002;6.488;2024-01-30T14:37:24;9.10;99.90
54192;DHT22;40101;53.002;6.488;2024-01-30T14:39:50;9.30;99.90
54192;DHT22;40101;53.002;6.488;2024-01-30T14:42:16;9.00;99.90
54192;DHT22;40101;53.002;6.488;2024-01-30T14:44:42;9.00;99.90
54192;DHT22;40101;53.002;6.488;2024-01-30T14:47:49;9.20;99.90
54192;DHT22;40101;53.002;6.488;2024-01-30T14:50:18;8.80;99.90
54192;DHT22;40101;53.002;6.488;2024-01-30T14:52:47;8.80;99.90
54192;DHT22;40101;53.002;6.488;2024-01-30T15:02:55;8.60;99.90
54192;DHT22;40101;53.002;6.488;2024-01-30T15:11:57;8.30;99.90
54192;DHT22;40101;53.002;6.488;2024-01-30T15:14:23;8.50;99.90
54192;DHT22;40101;53.002;6.488;2024-01-30T15:16:55;8.40;99.90
54192;DHT22;40101;53.002;6.488;2024-01-30T15:19:41;8.20;99.90
54192;DHT22;40101;53.002;6.488;2024-01-30T15:22:06;8.30;99.90
54192;DHT22;40101;53.002;6.488;2024-01-30T15:24:38;8.40;99.90
54192;DHT22;40101;53.002;6.488;2024-01-30T15:27:07;8.40;99.90
54192;DHT22;40101;53.002;6.488;2024-01-30T15:29:32;8.40;99.90
54192;DHT22;40101;53.002;6.488;2024-01-30T15:32:01;8.40;99.90
54192;DHT22;40101;53.002;6.488;2024-01-30T15:34:56;8.40;99.90
54192;DHT22;40101;53.002;6.488;2024-01-30T15:37:34;8.30;99.90
54192;DHT22;40101;53.002;6.488;2024-01-30T15:40:00;8.50;99.90
54192;DHT22;40101;53.002;6.488;2024-01-30T15:42:53;8.60;99.90
54192;DHT22;40101;53.002;6.488;2024-01-30T15:45:30;8.30;99.90
54192;DHT22;40101;53.002;6.488;2024-01-30T15:48:07;8.30;99.90
54192;DHT22;40101;53.002;6.488;2024-01-30T15:50:34;8.70;99.90
54192;DHT22;40101;53.002;6.488;2024-01-30T15:53:05;8.40;99.90
54192;DHT22;40101;53.002;6.488;2024-01-30T15:55:50;7.80;99.90
54192;DHT22;40101;53.002;6.488;2024-01-30T15:58:18;8.30;99.90
54192;DHT22;40101;53.002;6.488;2024-01-30T16:00:57;8.30;99.90
54192;DHT22;40101;53.002;6.488;2024-01-30T16:03:23;8.30;99.90
54192;DHT22;40101;53.002;6.488;2024-01-30T16:05:49;8.60;99.90
54192;DHT22;40101;53.002;6.488;2024-01-30T16:08:20;8.60;99.90
54192;DHT22;40101;53.002;6.488;2024-01-30T16:10:55;8.60;99.90
54192;DHT22;40101;53.002;6.488;2024-01-30T16:13:21;8.30;99.90